PWSweather.com
Personal Weather Stations
Station Observations
KCOGRAND2
Redlands, Southcamp Road & Dakota Circle, Grand Junction, CO 81507

Redlands, Southcamp Road & Dakota CircleGrand Junction, CO 81507

Lat: 39.055, Lon: -108.637

Elevation: 4870

Station Type: RadioShack WX200

High Low Average
Temperature 47.3°F8.5°C 27.3°F-2.6°C 36.6°F2.6°C
Dew Point 24.8°F-4.0°C 3.6°F-15.8°C 17.5°F-8.1°C
Winds 12.0 mph 19.3 kmh Calm Calm 4.0 mph SSW6.4 kmh SSW
Wind Gusts 21.0 mph33.8 kmh -- 7.0 mph11.3 kmh
Humidity 79% 17% 50%
Pressure 25.10 in850.0 mb 24.95 in844.9 mb -
Precipitation 0.00 in0.0 mm - -
Hour Temp Dew Point Humidity Winds Wind Gusts Pressure Precip Precip Rate Daily Precip Total
12:00 AM 37.9°F3.3°C 14.0°F-10.0°C 37% 7.0 mph WSW11.3 kmh WSW 10.1 mph16.3 kmh 25.04 in848.0 mb 0.00 in0.0 mm 0.00 in/hr0.0 mm/hr 0.00 in0.0 mm
12:05 AM 37.9°F3.3°C 14.5°F-9.7°C 38% 6.0 mph WSW9.7 kmh WSW 9.2 mph14.8 kmh 25.04 in848.0 mb 0.00 in0.0 mm 0.00 in/hr0.0 mm/hr 0.00 in0.0 mm
12:10 AM 37.9°F3.3°C 14.5°F-9.7°C 38% 6.0 mph WSW9.7 kmh WSW 8.7 mph14.0 kmh 25.04 in848.0 mb 0.00 in0.0 mm 0.00 in/hr0.0 mm/hr 0.00 in0.0 mm
12:15 AM 37.8°F3.2°C 15.1°F-9.4°C 39% 5.0 mph WSW8.0 kmh WSW 7.4 mph11.9 kmh 25.04 in848.0 mb 0.00 in0.0 mm 0.00 in/hr0.0 mm/hr 0.00 in0.0 mm
12:20 AM 37.6°F3.1°C 14.9°F-9.5°C 39% 4.0 mph WSW6.4 kmh WSW 5.8 mph9.3 kmh 25.04 in848.0 mb 0.00 in0.0 mm 0.00 in/hr0.0 mm/hr 0.00 in0.0 mm
12:25 AM 36.7°F2.6°C 15.3°F-9.3°C 41% 4.0 mph W6.4 kmh W 6.9 mph11.1 kmh 25.04 in848.0 mb 0.00 in0.0 mm 0.00 in/hr0.0 mm/hr 0.00 in0.0 mm
12:30 AM 35.4°F1.9°C 18.1°F-7.7°C 49% 4.0 mph NNW6.4 kmh NNW 6.7 mph10.8 kmh 25.04 in848.0 mb 0.00 in0.0 mm 0.00 in/hr0.0 mm/hr 0.00 in0.0 mm
12:35 AM 34.5°F1.4°C 18.7°F-7.4°C 52% 6.0 mph NNE9.7 kmh NNE 7.8 mph12.6 kmh 25.04 in848.0 mb 0.00 in0.0 mm 0.00 in/hr0.0 mm/hr 0.00 in0.0 mm
12:40 AM 34.7°F1.5°C 18.5°F-7.5°C 51% 5.0 mph NE8.0 kmh NE 6.3 mph10.1 kmh 25.04 in848.0 mb 0.00 in0.0 mm 0.00 in/hr0.0 mm/hr 0.00 in0.0 mm
12:45 AM 35.6°F2.0°C 18.9°F-7.3°C 50% 5.0 mph NE8.0 kmh NE 6.3 mph10.1 kmh 25.04 in848.0 mb 0.00 in0.0 mm 0.00 in/hr0.0 mm/hr 0.00 in0.0 mm
12:50 AM 35.6°F2.0°C 18.3°F-7.6°C 49% 4.0 mph ENE6.4 kmh ENE 5.4 mph8.7 kmh 25.04 in848.0 mb 0.00 in0.0 mm 0.00 in/hr0.0 mm/hr 0.00 in0.0 mm
12:55 AM 35.4°F1.9°C 18.1°F-7.7°C 49% 4.0 mph E6.4 kmh E 5.8 mph9.3 kmh 25.04 in848.0 mb 0.00 in0.0 mm 0.00 in/hr0.0 mm/hr 0.00 in0.0 mm
01:00 AM 35.2°F1.8°C 18.0°F-7.8°C 49% 4.0 mph E6.4 kmh E 5.4 mph8.7 kmh 25.04 in848.0 mb 0.00 in0.0 mm 0.00 in/hr0.0 mm/hr 0.00 in0.0 mm
01:05 AM 35.1°F1.7°C 17.8°F-7.9°C 49% 4.0 mph E6.4 kmh E 5.8 mph9.3 kmh 25.04 in848.0 mb 0.00 in0.0 mm 0.00 in/hr0.0 mm/hr 0.00 in0.0 mm
01:10 AM 35.1°F1.7°C 18.3°F-7.6°C 50% 4.0 mph E6.4 kmh E 6.7 mph10.8 kmh 25.04 in848.0 mb 0.00 in0.0 mm 0.00 in/hr0.0 mm/hr 0.00 in0.0 mm
01:15 AM 34.9°F1.6°C 18.1°F-7.7°C 50% 4.0 mph ESE6.4 kmh ESE 6.3 mph10.1 kmh 25.04 in848.0 mb 0.00 in0.0 mm 0.00 in/hr0.0 mm/hr 0.00 in0.0 mm
01:20 AM 34.5°F1.4°C 18.3°F-7.6°C 51% 3.0 mph ESE4.8 kmh ESE 4.9 mph7.9 kmh 25.04 in848.0 mb 0.00 in0.0 mm 0.00 in/hr0.0 mm/hr 0.00 in0.0 mm
01:25 AM 34.7°F1.5°C 18.5°F-7.5°C 51% 3.0 mph SE4.8 kmh SE 5.4 mph8.7 kmh 25.04 in848.0 mb 0.00 in0.0 mm 0.00 in/hr0.0 mm/hr 0.00 in0.0 mm
01:30 AM 34.5°F1.4°C 18.7°F-7.4°C 52% 3.0 mph S4.8 kmh S 5.8 mph9.3 kmh 25.04 in848.0 mb 0.00 in0.0 mm 0.00 in/hr0.0 mm/hr 0.00 in0.0 mm
01:35 AM 34.5°F1.4°C 18.7°F-7.4°C 52% 2.0 mph SSW3.2 kmh SSW 4.0 mph6.4 kmh 25.04 in848.0 mb 0.00 in0.0 mm 0.00 in/hr0.0 mm/hr 0.00 in0.0 mm
01:40 AM 34.3°F1.3°C 18.5°F-7.5°C 52% Calm Calm 4.0 mph6.4 kmh 25.07 in849.0 mb 0.00 in0.0 mm 0.00 in/hr0.0 mm/hr 0.00 in0.0 mm
01:45 AM 34.3°F1.3°C 18.5°F-7.5°C 52% Calm Calm -- 25.07 in849.0 mb 0.00 in0.0 mm 0.00 in/hr0.0 mm/hr 0.00 in0.0 mm
01:50 AM 34.3°F1.3°C 18.5°F-7.5°C 52% Calm Calm -- 25.07 in849.0 mb 0.00 in0.0 mm 0.00 in/hr0.0 mm/hr 0.00 in0.0 mm
01:55 AM 34.0°F1.1°C 18.7°F-7.4°C 53% Calm Calm -- 25.07 in849.0 mb 0.00 in0.0 mm 0.00 in/hr0.0 mm/hr 0.00 in0.0 mm
02:00 AM 33.8°F1.0°C 18.9°F-7.3°C 54% Calm Calm 3.1 mph5.0 kmh 25.07 in849.0 mb 0.00 in0.0 mm 0.00 in/hr0.0 mm/hr 0.00 in0.0 mm
02:05 AM 33.6°F0.9°C 19.2°F-7.1°C 55% Calm Calm 3.1 mph5.0 kmh 25.07 in849.0 mb 0.00 in0.0 mm 0.00 in/hr0.0 mm/hr 0.00 in0.0 mm
02:10 AM 33.6°F0.9°C 19.2°F-7.1°C 55% Calm Calm -- 25.07 in849.0 mb 0.00 in0.0 mm 0.00 in/hr0.0 mm/hr 0.00 in0.0 mm
02:15 AM 33.6°F0.9°C 18.9°F-7.3°C 54% Calm Calm -- 25.07 in849.0 mb 0.00 in0.0 mm 0.00 in/hr0.0 mm/hr 0.00 in0.0 mm
02:20 AM 33.6°F0.9°C 19.2°F-7.1°C 55% Calm Calm -- 25.07 in849.0 mb 0.00 in0.0 mm 0.00 in/hr0.0 mm/hr 0.00 in0.0 mm
02:25 AM 34.0°F1.1°C 19.0°F-7.2°C 54% Calm Calm 4.5 mph7.2 kmh 25.07 in849.0 mb 0.00 in0.0 mm 0.00 in/hr0.0 mm/hr 0.00 in0.0 mm
02:30 AM 33.1°F0.6°C 18.7°F-7.4°C 55% 2.0 mph SSW3.2 kmh SSW 4.5 mph7.2 kmh 25.07 in849.0 mb 0.00 in0.0 mm 0.00 in/hr0.0 mm/hr 0.00 in0.0 mm
02:35 AM 32.9°F0.5°C 18.5°F-7.5°C 55% 2.0 mph SSW3.2 kmh SSW 3.1 mph5.0 kmh 25.07 in849.0 mb 0.00 in0.0 mm 0.00 in/hr0.0 mm/hr 0.00 in0.0 mm
02:40 AM 32.9°F0.5°C 18.9°F-7.3°C 56% Calm Calm 2.7 mph4.3 kmh 25.07 in849.0 mb 0.00 in0.0 mm 0.00 in/hr0.0 mm/hr 0.00 in0.0 mm
02:45 AM 32.5°F0.3°C 19.4°F-7.0°C 58% Calm Calm 4.0 mph6.4 kmh 25.07 in849.0 mb 0.00 in0.0 mm 0.00 in/hr0.0 mm/hr 0.00 in0.0 mm
02:50 AM 32.4°F0.2°C 19.2°F-7.1°C 58% Calm Calm 3.6 mph5.8 kmh 25.07 in849.0 mb 0.00 in0.0 mm 0.00 in/hr0.0 mm/hr 0.00 in0.0 mm
02:55 AM 32.2°F0.1°C 19.0°F-7.2°C 58% 1.0 mph SSW1.6 kmh SSW 3.6 mph5.8 kmh 25.07 in849.0 mb 0.00 in0.0 mm 0.00 in/hr0.0 mm/hr 0.00 in0.0 mm
03:00 AM 31.8°F-0.1°C 18.7°F-7.4°C 58% 1.0 mph SSW1.6 kmh SSW 3.6 mph5.8 kmh 25.07 in849.0 mb 0.00 in0.0 mm 0.00 in/hr0.0 mm/hr 0.00 in0.0 mm
03:05 AM 31.3°F-0.4°C 18.7°F-7.4°C 59% 1.0 mph SSW1.6 kmh SSW 3.6 mph5.8 kmh 25.07 in849.0 mb 0.00 in0.0 mm 0.00 in/hr0.0 mm/hr 0.00 in0.0 mm
03:10 AM 31.5°F-0.3°C 19.2°F-7.1°C 60% 1.0 mph SSW1.6 kmh SSW 3.6 mph5.8 kmh 25.07 in849.0 mb 0.00 in0.0 mm 0.00 in/hr0.0 mm/hr 0.00 in0.0 mm
03:15 AM 31.5°F-0.3°C 18.9°F-7.3°C 59% 1.0 mph SSW1.6 kmh SSW -- 25.07 in849.0 mb 0.00 in0.0 mm 0.00 in/hr0.0 mm/hr 0.00 in0.0 mm
03:20 AM 31.5°F-0.3°C 18.3°F-7.6°C 58% Calm Calm -- 25.07 in849.0 mb 0.00 in0.0 mm 0.00 in/hr0.0 mm/hr 0.00 in0.0 mm
03:25 AM 31.6°F-0.2°C 18.5°F-7.5°C 58% Calm Calm -- 25.07 in849.0 mb 0.00 in0.0 mm 0.00 in/hr0.0 mm/hr 0.00 in0.0 mm
03:30 AM 31.5°F-0.3°C 18.0°F-7.8°C 57% Calm Calm 3.6 mph5.8 kmh 25.07 in849.0 mb 0.00 in0.0 mm 0.00 in/hr0.0 mm/hr 0.00 in0.0 mm
03:36 AM 32.0°F0.0°C 18.5°F-7.5°C 57% Calm Calm 2.7 mph4.3 kmh 25.07 in849.0 mb 0.00 in0.0 mm 0.00 in/hr0.0 mm/hr 0.00 in0.0 mm
03:41 AM 31.3°F-0.4°C 18.3°F-7.6°C 58% Calm Calm 3.6 mph5.8 kmh 25.07 in849.0 mb 0.00 in0.0 mm 0.00 in/hr0.0 mm/hr 0.00 in0.0 mm
03:46 AM 31.6°F-0.2°C 18.5°F-7.5°C 58% Calm Calm -- 25.07 in849.0 mb 0.00 in0.0 mm 0.00 in/hr0.0 mm/hr 0.00 in0.0 mm
03:51 AM 31.1°F-0.5°C 18.1°F-7.7°C 58% Calm Calm 3.6 mph5.8 kmh 25.07 in849.0 mb 0.00 in0.0 mm 0.00 in/hr0.0 mm/hr 0.00 in0.0 mm
03:56 AM 31.1°F-0.5°C 18.5°F-7.5°C 59% 1.0 mph SSW1.6 kmh SSW 4.0 mph6.4 kmh 25.07 in849.0 mb 0.00 in0.0 mm 0.00 in/hr0.0 mm/hr 0.00 in0.0 mm
04:01 AM 31.5°F-0.3°C 18.3°F-7.6°C 58% 1.0 mph SSW1.6 kmh SSW 3.6 mph5.8 kmh 25.07 in849.0 mb 0.00 in0.0 mm 0.00 in/hr0.0 mm/hr 0.00 in0.0 mm
04:06 AM 32.5°F0.3°C 18.1°F-7.7°C 55% Calm Calm -- 25.07 in849.0 mb 0.00 in0.0 mm 0.00 in/hr0.0 mm/hr 0.00 in0.0 mm
04:11 AM 33.1°F0.6°C 18.7°F-7.4°C 55% 1.0 mph SSW1.6 kmh SSW 4.5 mph7.2 kmh 25.07 in849.0 mb 0.00 in0.0 mm 0.00 in/hr0.0 mm/hr 0.00 in0.0 mm
04:16 AM 32.9°F0.5°C 18.5°F-7.5°C 55% 3.0 mph WSW4.8 kmh WSW 4.9 mph7.9 kmh 25.07 in849.0 mb 0.00 in0.0 mm 0.00 in/hr0.0 mm/hr 0.00 in0.0 mm
04:21 AM 32.9°F0.5°C 18.5°F-7.5°C 55% 3.0 mph NW4.8 kmh NW 4.0 mph6.4 kmh 25.07 in849.0 mb 0.00 in0.0 mm 0.00 in/hr0.0 mm/hr 0.00 in0.0 mm
04:26 AM 32.9°F0.5°C 18.5°F-7.5°C 55% 3.0 mph NW4.8 kmh NW 6.7 mph10.8 kmh 25.07 in849.0 mb 0.00 in0.0 mm 0.00 in/hr0.0 mm/hr 0.00 in0.0 mm
04:31 AM 32.0°F0.0°C 19.4°F-7.0°C 59% 5.0 mph N8.0 kmh N 9.6 mph15.4 kmh 25.07 in849.0 mb 0.00 in0.0 mm 0.00 in/hr0.0 mm/hr 0.00 in0.0 mm
04:36 AM 31.3°F-0.4°C 21.2°F-6.0°C 66% 7.0 mph NNE11.3 kmh NNE 9.2 mph14.8 kmh 25.07 in849.0 mb 0.00 in0.0 mm 0.00 in/hr0.0 mm/hr 0.00 in0.0 mm
04:41 AM 31.1°F-0.5°C 21.0°F-6.1°C 66% 7.0 mph NE11.3 kmh NE 9.6 mph15.4 kmh 25.07 in849.0 mb 0.00 in0.0 mm 0.00 in/hr0.0 mm/hr 0.00 in0.0 mm
04:46 AM 31.1°F-0.5°C 22.5°F-5.3°C 70% 6.0 mph NE9.7 kmh NE 7.4 mph11.9 kmh 25.07 in849.0 mb 0.00 in0.0 mm 0.00 in/hr0.0 mm/hr 0.00 in0.0 mm
04:51 AM 30.7°F-0.7°C 23.5°F-4.7°C 74% 5.0 mph NNE8.0 kmh NNE 7.4 mph11.9 kmh 25.07 in849.0 mb 0.00 in0.0 mm 0.00 in/hr0.0 mm/hr 0.00 in0.0 mm
04:56 AM 30.7°F-0.7°C 23.2°F-4.9°C 73% 5.0 mph N8.0 kmh N 6.3 mph10.1 kmh 25.07 in849.0 mb 0.00 in0.0 mm 0.00 in/hr0.0 mm/hr 0.00 in0.0 mm
05:01 AM 30.7°F-0.7°C 23.2°F-4.9°C 73% 4.0 mph NNW6.4 kmh NNW 4.9 mph7.9 kmh 25.07 in849.0 mb 0.00 in0.0 mm 0.00 in/hr0.0 mm/hr 0.00 in0.0 mm
05:06 AM 30.6°F-0.8°C 22.6°F-5.2°C 72% 4.0 mph N6.4 kmh N 7.8 mph12.6 kmh 25.07 in849.0 mb 0.00 in0.0 mm 0.00 in/hr0.0 mm/hr 0.00 in0.0 mm
05:11 AM 30.2°F-1.0°C 22.6°F-5.2°C 73% 5.0 mph NNE8.0 kmh NNE 6.9 mph11.1 kmh 25.07 in849.0 mb 0.00 in0.0 mm 0.00 in/hr0.0 mm/hr 0.00 in0.0 mm
05:16 AM 30.0°F-1.1°C 22.8°F-5.1°C 74% 5.0 mph NNE8.0 kmh NNE 6.7 mph10.8 kmh 25.07 in849.0 mb 0.00 in0.0 mm 0.00 in/hr0.0 mm/hr 0.00 in0.0 mm
05:21 AM 30.2°F-1.0°C 22.3°F-5.4°C 72% 5.0 mph NNE8.0 kmh NNE 5.8 mph9.3 kmh 25.07 in849.0 mb 0.00 in0.0 mm 0.00 in/hr0.0 mm/hr 0.00 in0.0 mm
05:26 AM 30.2°F-1.0°C 21.0°F-6.1°C 68% 4.0 mph NNE6.4 kmh NNE 6.3 mph10.1 kmh 25.07 in849.0 mb 0.00 in0.0 mm 0.00 in/hr0.0 mm/hr 0.00 in0.0 mm
05:31 AM 30.0°F-1.1°C 20.8°F-6.2°C 68% 3.0 mph NNE4.8 kmh NNE 5.4 mph8.7 kmh 25.07 in849.0 mb 0.00 in0.0 mm 0.00 in/hr0.0 mm/hr 0.00 in0.0 mm
05:36 AM 29.8°F-1.2°C 21.0°F-6.1°C 69% Calm Calm 3.1 mph5.0 kmh 25.07 in849.0 mb 0.00 in0.0 mm 0.00 in/hr0.0 mm/hr 0.00 in0.0 mm
05:42 AM 29.3°F-1.5°C 20.8°F-6.2°C 70% Calm Calm 4.0 mph6.4 kmh 25.07 in849.0 mb 0.00 in0.0 mm 0.00 in/hr0.0 mm/hr 0.00 in0.0 mm
05:47 AM 29.1°F-1.6°C 20.8°F-6.2°C 71% Calm Calm -- 25.07 in849.0 mb 0.00 in0.0 mm 0.00 in/hr0.0 mm/hr 0.00 in0.0 mm
05:52 AM 28.9°F-1.7°C 21.0°F-6.1°C 72% Calm Calm -- 25.07 in849.0 mb 0.00 in0.0 mm 0.00 in/hr0.0 mm/hr 0.00 in0.0 mm
05:57 AM 28.9°F-1.7°C 21.4°F-5.9°C 73% Calm Calm 2.7 mph4.3 kmh 25.07 in849.0 mb 0.00 in0.0 mm 0.00 in/hr0.0 mm/hr 0.00 in0.0 mm
06:02 AM 28.8°F-1.8°C 21.2°F-6.0°C 73% Calm Calm -- 25.07 in849.0 mb 0.00 in0.0 mm 0.00 in/hr0.0 mm/hr 0.00 in0.0 mm
06:07 AM 28.8°F-1.8°C 21.2°F-6.0°C 73% Calm Calm -- 25.07 in849.0 mb 0.00 in0.0 mm 0.00 in/hr0.0 mm/hr 0.00 in0.0 mm
06:12 AM 28.4°F-2.0°C 21.2°F-6.0°C 74% Calm Calm -- 25.07 in849.0 mb 0.00 in0.0 mm 0.00 in/hr0.0 mm/hr 0.00 in0.0 mm
06:17 AM 28.8°F-1.8°C 21.6°F-5.8°C 74% Calm Calm -- 25.07 in849.0 mb 0.00 in0.0 mm 0.00 in/hr0.0 mm/hr 0.00 in0.0 mm
06:22 AM 28.0°F-2.2°C 21.2°F-6.0°C 75% Calm Calm 3.6 mph5.8 kmh 25.07 in849.0 mb 0.00 in0.0 mm 0.00 in/hr0.0 mm/hr 0.00 in0.0 mm
06:27 AM 27.7°F-2.4°C 20.8°F-6.2°C 75% 1.0 mph NNE1.6 kmh NNE 4.5 mph7.2 kmh 25.07 in849.0 mb 0.00 in0.0 mm 0.00 in/hr0.0 mm/hr 0.00 in0.0 mm
06:32 AM 27.3°F-2.6°C 21.0°F-6.1°C 77% 1.0 mph NE1.6 kmh NE -- 25.07 in849.0 mb 0.00 in0.0 mm 0.00 in/hr0.0 mm/hr 0.00 in0.0 mm
06:37 AM 27.3°F-2.6°C 21.0°F-6.1°C 77% Calm Calm -- 25.07 in849.0 mb 0.00 in0.0 mm 0.00 in/hr0.0 mm/hr 0.00 in0.0 mm
06:42 AM 27.7°F-2.4°C 21.4°F-5.9°C 77% Calm Calm -- 25.07 in849.0 mb 0.00 in0.0 mm 0.00 in/hr0.0 mm/hr 0.00 in0.0 mm
06:47 AM 28.0°F-2.2°C 21.7°F-5.7°C 77% Calm Calm -- 25.07 in849.0 mb 0.00 in0.0 mm 0.00 in/hr0.0 mm/hr 0.00 in0.0 mm
06:52 AM 28.2°F-2.1°C 21.9°F-5.6°C 77% Calm Calm -- 25.07 in849.0 mb 0.00 in0.0 mm 0.00 in/hr0.0 mm/hr 0.00 in0.0 mm
06:57 AM 28.8°F-1.8°C 22.1°F-5.5°C 76% Calm Calm -- 25.07 in849.0 mb 0.00 in0.0 mm 0.00 in/hr0.0 mm/hr 0.00 in0.0 mm
07:02 AM 29.3°F-1.5°C 22.5°F-5.3°C 75% Calm Calm 3.6 mph5.8 kmh 25.07 in849.0 mb 0.00 in0.0 mm 0.00 in/hr0.0 mm/hr 0.00 in0.0 mm
07:07 AM 29.1°F-1.6°C 21.9°F-5.6°C 74% Calm Calm 3.1 mph5.0 kmh 25.07 in849.0 mb 0.00 in0.0 mm 0.00 in/hr0.0 mm/hr 0.00 in0.0 mm
07:12 AM 29.3°F-1.5°C 22.1°F-5.5°C 74% Calm Calm -- 25.07 in849.0 mb 0.00 in0.0 mm 0.00 in/hr0.0 mm/hr 0.00 in0.0 mm
07:17 AM 29.5°F-1.4°C 21.9°F-5.6°C 73% Calm Calm 2.7 mph4.3 kmh 25.07 in849.0 mb 0.00 in0.0 mm 0.00 in/hr0.0 mm/hr 0.00 in0.0 mm
07:22 AM 29.7°F-1.3°C 22.1°F-5.5°C 73% Calm Calm -- 25.07 in849.0 mb 0.00 in0.0 mm 0.00 in/hr0.0 mm/hr 0.00 in0.0 mm
07:27 AM 29.8°F-1.2°C 22.3°F-5.4°C 73% Calm Calm 2.7 mph4.3 kmh 25.07 in849.0 mb 0.00 in0.0 mm 0.00 in/hr0.0 mm/hr 0.00 in0.0 mm
07:32 AM 30.2°F-1.0°C 22.3°F-5.4°C 72% Calm Calm 4.0 mph6.4 kmh 25.07 in849.0 mb 0.00 in0.0 mm 0.00 in/hr0.0 mm/hr 0.00 in0.0 mm
07:38 AM 29.7°F-1.3°C 21.4°F-5.9°C 71% Calm Calm 2.7 mph4.3 kmh 25.07 in849.0 mb 0.00 in0.0 mm 0.00 in/hr0.0 mm/hr 0.00 in0.0 mm
07:43 AM 29.1°F-1.6°C 20.8°F-6.2°C 71% Calm Calm -- 25.07 in849.0 mb 0.00 in0.0 mm 0.00 in/hr0.0 mm/hr 0.00 in0.0 mm
07:48 AM 28.8°F-1.8°C 20.8°F-6.2°C 72% Calm Calm 5.4 mph8.7 kmh 25.07 in849.0 mb 0.00 in0.0 mm 0.00 in/hr0.0 mm/hr 0.00 in0.0 mm
07:53 AM 28.8°F-1.8°C 22.1°F-5.5°C 76% 3.0 mph N4.8 kmh N 6.3 mph10.1 kmh 25.07 in849.0 mb 0.00 in0.0 mm 0.00 in/hr0.0 mm/hr 0.00 in0.0 mm
07:58 AM 28.6°F-1.9°C 21.9°F-5.6°C 76% 4.0 mph NW6.4 kmh NW 6.7 mph10.8 kmh 25.07 in849.0 mb 0.00 in0.0 mm 0.00 in/hr0.0 mm/hr 0.00 in0.0 mm
08:03 AM 28.0°F-2.2°C 21.7°F-5.7°C 77% 4.0 mph NW6.4 kmh NW 6.7 mph10.8 kmh 25.07 in849.0 mb 0.00 in0.0 mm 0.00 in/hr0.0 mm/hr 0.00 in0.0 mm
08:08 AM 27.9°F-2.3°C 21.9°F-5.6°C 78% 3.0 mph WNW4.8 kmh WNW 4.0 mph6.4 kmh 25.07 in849.0 mb 0.00 in0.0 mm 0.00 in/hr0.0 mm/hr 0.00 in0.0 mm
08:13 AM 27.9°F-2.3°C 21.9°F-5.6°C 78% Calm Calm 3.1 mph5.0 kmh 25.07 in849.0 mb 0.00 in0.0 mm 0.00 in/hr0.0 mm/hr 0.00 in0.0 mm
08:18 AM 27.9°F-2.3°C 21.9°F-5.6°C 78% Calm Calm -- 25.07 in849.0 mb 0.00 in0.0 mm 0.00 in/hr0.0 mm/hr 0.00 in0.0 mm
08:23 AM 28.2°F-2.1°C 22.6°F-5.2°C 79% Calm Calm 2.7 mph4.3 kmh 25.10 in850.0 mb 0.00 in0.0 mm 0.00 in/hr0.0 mm/hr 0.00 in0.0 mm
08:28 AM 28.6°F-1.9°C 22.8°F-5.1°C 79% Calm Calm 3.6 mph5.8 kmh 25.10 in850.0 mb 0.00 in0.0 mm 0.00 in/hr0.0 mm/hr 0.00 in0.0 mm
08:33 AM 29.1°F-1.6°C 23.4°F-4.8°C 79% Calm Calm 3.6 mph5.8 kmh 25.10 in850.0 mb 0.00 in0.0 mm 0.00 in/hr0.0 mm/hr 0.00 in0.0 mm
08:38 AM 29.7°F-1.3°C 23.7°F-4.6°C 78% Calm Calm -- 25.10 in850.0 mb 0.00 in0.0 mm 0.00 in/hr0.0 mm/hr 0.00 in0.0 mm
08:43 AM 29.7°F-1.3°C 23.7°F-4.6°C 78% Calm Calm 3.1 mph5.0 kmh 25.10 in850.0 mb 0.00 in0.0 mm 0.00 in/hr0.0 mm/hr 0.00 in0.0 mm
08:48 AM 30.0°F-1.1°C 24.1°F-4.4°C 78% Calm Calm 2.7 mph4.3 kmh 25.10 in850.0 mb 0.00 in0.0 mm 0.00 in/hr0.0 mm/hr 0.00 in0.0 mm
08:53 AM 30.2°F-1.0°C 23.9°F-4.5°C 77% Calm Calm 3.1 mph5.0 kmh 25.10 in850.0 mb 0.00 in0.0 mm 0.00 in/hr0.0 mm/hr 0.00 in0.0 mm
08:58 AM 31.1°F-0.5°C 24.8°F-4.0°C 77% Calm Calm -- 25.10 in850.0 mb 0.00 in0.0 mm 0.00 in/hr0.0 mm/hr 0.00 in0.0 mm
09:03 AM 31.5°F-0.3°C 24.8°F-4.0°C 76% Calm Calm 2.7 mph4.3 kmh 25.10 in850.0 mb 0.00 in0.0 mm 0.00 in/hr0.0 mm/hr 0.00 in0.0 mm
09:08 AM 31.8°F-0.1°C 24.4°F-4.2°C 74% Calm Calm -- 25.10 in850.0 mb 0.00 in0.0 mm 0.00 in/hr0.0 mm/hr 0.00 in0.0 mm
09:13 AM 31.8°F-0.1°C 23.5°F-4.7°C 71% Calm Calm 4.0 mph6.4 kmh 25.10 in850.0 mb 0.00 in0.0 mm 0.00 in/hr0.0 mm/hr 0.00 in0.0 mm
09:18 AM 32.0°F0.0°C 24.1°F-4.4°C 72% 1.0 mph N1.6 kmh N 4.0 mph6.4 kmh 25.10 in850.0 mb 0.00 in0.0 mm 0.00 in/hr0.0 mm/hr 0.00 in0.0 mm
09:23 AM 32.2°F0.1°C 23.9°F-4.5°C 71% 2.0 mph N3.2 kmh N 5.4 mph8.7 kmh 25.10 in850.0 mb 0.00 in0.0 mm 0.00 in/hr0.0 mm/hr 0.00 in0.0 mm
09:28 AM 32.2°F0.1°C 23.2°F-4.9°C 69% 2.0 mph N3.2 kmh N 5.4 mph8.7 kmh 25.10 in850.0 mb 0.00 in0.0 mm 0.00 in/hr0.0 mm/hr 0.00 in0.0 mm
09:33 AM 32.7°F0.4°C 23.7°F-4.6°C 69% 2.0 mph N3.2 kmh N 5.4 mph8.7 kmh 25.10 in850.0 mb 0.00 in0.0 mm 0.00 in/hr0.0 mm/hr 0.00 in0.0 mm
09:38 AM 32.5°F0.3°C 22.8°F-5.1°C 67% 3.0 mph N4.8 kmh N 5.4 mph8.7 kmh 25.10 in850.0 mb 0.00 in0.0 mm 0.00 in/hr0.0 mm/hr 0.00 in0.0 mm
09:43 AM 32.7°F0.4°C 22.3°F-5.4°C 65% 4.0 mph N6.4 kmh N 4.9 mph7.9 kmh 25.10 in850.0 mb 0.00 in0.0 mm 0.00 in/hr0.0 mm/hr 0.00 in0.0 mm
09:48 AM 33.3°F0.7°C 22.1°F-5.5°C 63% 3.0 mph NNE4.8 kmh NNE 5.4 mph8.7 kmh 25.10 in850.0 mb 0.00 in0.0 mm 0.00 in/hr0.0 mm/hr 0.00 in0.0 mm
09:53 AM 33.3°F0.7°C 21.7°F-5.7°C 62% 3.0 mph NNE4.8 kmh NNE 4.5 mph7.2 kmh 25.10 in850.0 mb 0.00 in0.0 mm 0.00 in/hr0.0 mm/hr 0.00 in0.0 mm
09:58 AM 33.8°F1.0°C 21.0°F-6.1°C 59% 3.0 mph NNE4.8 kmh NNE 4.5 mph7.2 kmh 25.10 in850.0 mb 0.00 in0.0 mm 0.00 in/hr0.0 mm/hr 0.00 in0.0 mm
10:03 AM 34.9°F1.6°C 21.6°F-5.8°C 58% 2.0 mph NNE3.2 kmh NNE 4.0 mph6.4 kmh 25.10 in850.0 mb 0.00 in0.0 mm 0.00 in/hr0.0 mm/hr 0.00 in0.0 mm
10:09 AM 35.6°F2.0°C 21.9°F-5.6°C 57% 1.0 mph NNE1.6 kmh NNE 3.6 mph5.8 kmh 25.10 in850.0 mb 0.00 in0.0 mm 0.00 in/hr0.0 mm/hr 0.00 in0.0 mm
10:14 AM 36.5°F2.5°C 21.9°F-5.6°C 55% Calm Calm 3.1 mph5.0 kmh 25.10 in850.0 mb 0.00 in0.0 mm 0.00 in/hr0.0 mm/hr 0.00 in0.0 mm
10:19 AM 36.7°F2.6°C 20.7°F-6.3°C 52% Calm Calm 3.1 mph5.0 kmh 25.10 in850.0 mb 0.00 in0.0 mm 0.00 in/hr0.0 mm/hr 0.00 in0.0 mm
10:24 AM 36.7°F2.6°C 20.3°F-6.5°C 51% 1.0 mph NNE1.6 kmh NNE 3.6 mph5.8 kmh 25.10 in850.0 mb 0.00 in0.0 mm 0.00 in/hr0.0 mm/hr 0.00 in0.0 mm
10:29 AM 36.7°F2.6°C 19.4°F-7.0°C 49% 2.0 mph NE3.2 kmh NE 4.5 mph7.2 kmh 25.10 in850.0 mb 0.00 in0.0 mm 0.00 in/hr0.0 mm/hr 0.00 in0.0 mm
10:34 AM 36.9°F2.7°C 19.6°F-6.9°C 49% 2.0 mph NE3.2 kmh NE 4.0 mph6.4 kmh 25.10 in850.0 mb 0.00 in0.0 mm 0.00 in/hr0.0 mm/hr 0.00 in0.0 mm
10:39 AM 37.2°F2.9°C 19.8°F-6.8°C 49% 2.0 mph NE3.2 kmh NE 4.0 mph6.4 kmh 25.10 in850.0 mb 0.00 in0.0 mm 0.00 in/hr0.0 mm/hr 0.00 in0.0 mm
10:44 AM 38.5°F3.6°C 19.6°F-6.9°C 46% 2.0 mph NNE3.2 kmh NNE 4.9 mph7.9 kmh 25.10 in850.0 mb 0.00 in0.0 mm 0.00 in/hr0.0 mm/hr 0.00 in0.0 mm
10:49 AM 37.9°F3.3°C 18.0°F-7.8°C 44% 2.0 mph NNE3.2 kmh NNE 5.4 mph8.7 kmh 25.10 in850.0 mb 0.00 in0.0 mm 0.00 in/hr0.0 mm/hr 0.00 in0.0 mm
10:54 AM 37.4°F3.0°C 16.3°F-8.7°C 42% 3.0 mph N4.8 kmh N 6.7 mph10.8 kmh 25.10 in850.0 mb 0.00 in0.0 mm 0.00 in/hr0.0 mm/hr 0.00 in0.0 mm
10:59 AM 37.4°F3.0°C 17.4°F-8.1°C 44% 3.0 mph NW4.8 kmh NW 5.8 mph9.3 kmh 25.10 in850.0 mb 0.00 in0.0 mm 0.00 in/hr0.0 mm/hr 0.00 in0.0 mm
11:04 AM 37.4°F3.0°C 17.4°F-8.1°C 44% 3.0 mph NNW4.8 kmh NNW 5.4 mph8.7 kmh 25.10 in850.0 mb 0.00 in0.0 mm 0.00 in/hr0.0 mm/hr 0.00 in0.0 mm
11:09 AM 38.1°F3.4°C 18.7°F-7.4°C 45% 4.0 mph N6.4 kmh N 5.8 mph9.3 kmh 25.10 in850.0 mb 0.00 in0.0 mm 0.00 in/hr0.0 mm/hr 0.00 in0.0 mm
11:14 AM 38.5°F3.6°C 18.0°F-7.8°C 43% 4.0 mph NNW6.4 kmh NNW 6.3 mph10.1 kmh 25.10 in850.0 mb 0.00 in0.0 mm 0.00 in/hr0.0 mm/hr 0.00 in0.0 mm
11:19 AM 38.5°F3.6°C 16.9°F-8.4°C 41% 4.0 mph NNW6.4 kmh NNW 7.8 mph12.6 kmh 25.10 in850.0 mb 0.00 in0.0 mm 0.00 in/hr0.0 mm/hr 0.00 in0.0 mm
11:24 AM 38.5°F3.6°C 16.9°F-8.4°C 41% 5.0 mph N8.0 kmh N 6.7 mph10.8 kmh 25.10 in850.0 mb 0.00 in0.0 mm 0.00 in/hr0.0 mm/hr 0.00 in0.0 mm
11:29 AM 38.8°F3.8°C 17.8°F-7.9°C 42% 3.0 mph NNW4.8 kmh NNW 4.9 mph7.9 kmh 25.10 in850.0 mb 0.00 in0.0 mm 0.00 in/hr0.0 mm/hr 0.00 in0.0 mm
11:34 AM 38.7°F3.7°C 17.1°F-8.3°C 41% 3.0 mph NNW4.8 kmh NNW 6.7 mph10.8 kmh 25.10 in850.0 mb 0.00 in0.0 mm 0.00 in/hr0.0 mm/hr 0.00 in0.0 mm
11:39 AM 38.8°F3.8°C 16.0°F-8.9°C 39% 3.0 mph N4.8 kmh N 4.0 mph6.4 kmh 25.10 in850.0 mb 0.00 in0.0 mm 0.00 in/hr0.0 mm/hr 0.00 in0.0 mm
11:44 AM 39.2°F4.0°C 16.3°F-8.7°C 39% 1.0 mph N1.6 kmh N 4.0 mph6.4 kmh 25.10 in850.0 mb 0.00 in0.0 mm 0.00 in/hr0.0 mm/hr 0.00 in0.0 mm
11:49 AM 39.0°F3.9°C 16.7°F-8.5°C 40% 3.0 mph N4.8 kmh N 7.4 mph11.9 kmh 25.10 in850.0 mb 0.00 in0.0 mm 0.00 in/hr0.0 mm/hr 0.00 in0.0 mm
11:54 AM 39.6°F4.2°C 16.7°F-8.5°C 39% 4.0 mph NNE6.4 kmh NNE 4.5 mph7.2 kmh 25.07 in849.0 mb 0.00 in0.0 mm 0.00 in/hr0.0 mm/hr 0.00 in0.0 mm
11:59 AM 40.5°F4.7°C 17.4°F-8.1°C 39% 2.0 mph NNE3.2 kmh NNE 5.4 mph8.7 kmh 25.07 in849.0 mb 0.00 in0.0 mm 0.00 in/hr0.0 mm/hr 0.00 in0.0 mm
12:04 PM 39.9°F4.4°C 17.1°F-8.3°C 39% 3.0 mph NNE4.8 kmh NNE 7.4 mph11.9 kmh 25.07 in849.0 mb 0.00 in0.0 mm 0.00 in/hr0.0 mm/hr 0.00 in0.0 mm
12:09 PM 40.1°F4.5°C 16.5°F-8.6°C 38% 4.0 mph NNE6.4 kmh NNE 7.8 mph12.6 kmh 25.07 in849.0 mb 0.00 in0.0 mm 0.00 in/hr0.0 mm/hr 0.00 in0.0 mm
12:14 PM 41.4°F5.2°C 17.6°F-8.0°C 38% 4.0 mph N6.4 kmh N 6.9 mph11.1 kmh 25.07 in849.0 mb 0.00 in0.0 mm 0.00 in/hr0.0 mm/hr 0.00 in0.0 mm
12:19 PM 41.5°F5.3°C 17.2°F-8.2°C 37% 4.0 mph N6.4 kmh N 6.7 mph10.8 kmh 25.07 in849.0 mb 0.00 in0.0 mm 0.00 in/hr0.0 mm/hr 0.00 in0.0 mm
12:24 PM 41.5°F5.3°C 15.3°F-9.3°C 34% 5.0 mph N8.0 kmh N 9.2 mph14.8 kmh 25.07 in849.0 mb 0.00 in0.0 mm 0.00 in/hr0.0 mm/hr 0.00 in0.0 mm
12:29 PM 43.3°F6.3°C 17.6°F-8.0°C 35% 4.0 mph NNE6.4 kmh NNE 9.6 mph15.4 kmh 25.07 in849.0 mb 0.00 in0.0 mm 0.00 in/hr0.0 mm/hr 0.00 in0.0 mm
12:34 PM 43.7°F6.5°C 15.1°F-9.4°C 31% 3.0 mph NE4.8 kmh NE 5.8 mph9.3 kmh 25.07 in849.0 mb 0.00 in0.0 mm 0.00 in/hr0.0 mm/hr 0.00 in0.0 mm
12:39 PM 42.8°F6.0°C 13.5°F-10.3°C 30% 3.0 mph ENE4.8 kmh ENE 6.3 mph10.1 kmh 25.07 in849.0 mb 0.00 in0.0 mm 0.00 in/hr0.0 mm/hr 0.00 in0.0 mm
12:44 PM 43.2°F6.2°C 13.8°F-10.1°C 30% 4.0 mph E6.4 kmh E 7.4 mph11.9 kmh 25.07 in849.0 mb 0.00 in0.0 mm 0.00 in/hr0.0 mm/hr 0.00 in0.0 mm
12:49 PM 43.2°F6.2°C 13.1°F-10.5°C 29% 6.0 mph NNW9.7 kmh NNW 14.8 mph23.8 kmh 25.07 in849.0 mb 0.00 in0.0 mm 0.00 in/hr0.0 mm/hr 0.00 in0.0 mm
12:54 PM 41.9°F5.5°C 12.0°F-11.1°C 29% 6.0 mph W9.7 kmh W 9.2 mph14.8 kmh 25.07 in849.0 mb 0.00 in0.0 mm 0.00 in/hr0.0 mm/hr 0.00 in0.0 mm
12:59 PM 42.8°F6.0°C 12.7°F-10.7°C 29% 6.0 mph S9.7 kmh S 8.7 mph14.0 kmh 25.07 in849.0 mb 0.00 in0.0 mm 0.00 in/hr0.0 mm/hr 0.00 in0.0 mm
01:04 PM 43.5°F6.4°C 14.2°F-9.9°C 30% 6.0 mph WSW9.7 kmh WSW 11.0 mph17.7 kmh 25.07 in849.0 mb 0.00 in0.0 mm 0.00 in/hr0.0 mm/hr 0.00 in0.0 mm
01:09 PM 44.1°F6.7°C 13.1°F-10.5°C 28% 9.0 mph NW14.5 kmh NW 15.9 mph25.6 kmh 25.04 in848.0 mb 0.00 in0.0 mm 0.00 in/hr0.0 mm/hr 0.00 in0.0 mm
01:14 PM 44.6°F7.0°C 13.5°F-10.3°C 28% 12.0 mph NW19.3 kmh NW 18.6 mph29.9 kmh 25.04 in848.0 mb 0.00 in0.0 mm 0.00 in/hr0.0 mm/hr 0.00 in0.0 mm
01:19 PM 45.5°F7.5°C 14.4°F-9.8°C 28% 12.0 mph NW19.3 kmh NW 19.0 mph30.6 kmh 25.04 in848.0 mb 0.00 in0.0 mm 0.00 in/hr0.0 mm/hr 0.00 in0.0 mm
01:24 PM 44.8°F7.1°C 12.9°F-10.6°C 27% 11.0 mph WNW17.7 kmh WNW 15.2 mph24.5 kmh 25.04 in848.0 mb 0.00 in0.0 mm 0.00 in/hr0.0 mm/hr 0.00 in0.0 mm
01:29 PM 44.1°F6.7°C 7.7°F-13.5°C 22% 12.0 mph W19.3 kmh W 19.9 mph32.0 kmh 25.04 in848.0 mb 0.00 in0.0 mm 0.00 in/hr0.0 mm/hr 0.00 in0.0 mm
01:34 PM 45.5°F7.5°C 9.0°F-12.8°C 22% 12.0 mph WSW19.3 kmh WSW 15.2 mph24.5 kmh 25.04 in848.0 mb 0.00 in0.0 mm 0.00 in/hr0.0 mm/hr 0.00 in0.0 mm
01:39 PM 44.6°F7.0°C 6.1°F-14.4°C 20% 10.0 mph WSW16.1 kmh WSW 14.8 mph23.8 kmh 25.04 in848.0 mb 0.00 in0.0 mm 0.00 in/hr0.0 mm/hr 0.00 in0.0 mm
01:44 PM 45.0°F7.2°C 6.3°F-14.3°C 20% 10.0 mph WSW16.1 kmh WSW 16.3 mph26.2 kmh 25.04 in848.0 mb 0.00 in0.0 mm 0.00 in/hr0.0 mm/hr 0.00 in0.0 mm
01:49 PM 46.4°F8.0°C 6.4°F-14.2°C 19% 12.0 mph WSW19.3 kmh WSW 21.0 mph33.8 kmh 25.04 in848.0 mb 0.00 in0.0 mm 0.00 in/hr0.0 mm/hr 0.00 in0.0 mm
01:54 PM 45.5°F7.5°C 5.7°F-14.6°C 19% 12.0 mph WSW19.3 kmh WSW 18.1 mph29.1 kmh 25.01 in846.9 mb 0.00 in0.0 mm 0.00 in/hr0.0 mm/hr 0.00 in0.0 mm
01:59 PM 46.0°F7.8°C 6.1°F-14.4°C 19% 11.0 mph WSW17.7 kmh WSW 14.3 mph23.0 kmh 25.01 in846.9 mb 0.00 in0.0 mm 0.00 in/hr0.0 mm/hr 0.00 in0.0 mm
02:04 PM 47.3°F8.5°C 7.2°F-13.8°C 19% 9.0 mph WSW14.5 kmh WSW 15.9 mph25.6 kmh 25.01 in846.9 mb 0.00 in0.0 mm 0.00 in/hr0.0 mm/hr 0.00 in0.0 mm
02:09 PM 46.2°F7.9°C 6.3°F-14.3°C 19% 10.0 mph WSW16.1 kmh WSW 17.7 mph28.5 kmh 25.01 in846.9 mb 0.00 in0.0 mm 0.00 in/hr0.0 mm/hr 0.00 in0.0 mm
02:14 PM 46.2°F7.9°C 6.3°F-14.3°C 19% 10.0 mph WSW16.1 kmh WSW 14.8 mph23.8 kmh 25.01 in846.9 mb 0.00 in0.0 mm 0.00 in/hr0.0 mm/hr 0.00 in0.0 mm
02:20 PM 46.9°F8.3°C 6.8°F-14.0°C 19% 9.0 mph WSW14.5 kmh WSW 11.0 mph17.7 kmh 25.01 in846.9 mb 0.00 in0.0 mm 0.00 in/hr0.0 mm/hr 0.00 in0.0 mm
02:25 PM 45.9°F7.7°C 3.6°F-15.8°C 17% 8.0 mph W12.9 kmh W 13.0 mph20.9 kmh 25.01 in846.9 mb 0.00 in0.0 mm 0.00 in/hr0.0 mm/hr 0.00 in0.0 mm
02:30 PM 46.6°F8.1°C 6.6°F-14.1°C 19% 9.0 mph W14.5 kmh W 12.5 mph20.1 kmh 25.01 in846.9 mb 0.00 in0.0 mm 0.00 in/hr0.0 mm/hr 0.00 in0.0 mm
02:35 PM 46.0°F7.8°C 3.7°F-15.7°C 17% 7.0 mph WSW11.3 kmh WSW 10.5 mph16.9 kmh 25.01 in846.9 mb 0.00 in0.0 mm 0.00 in/hr0.0 mm/hr 0.00 in0.0 mm
02:40 PM 46.0°F7.8°C 6.1°F-14.4°C 19% 8.0 mph WNW12.9 kmh WNW 14.3 mph23.0 kmh 25.01 in846.9 mb 0.00 in0.0 mm 0.00 in/hr0.0 mm/hr 0.00 in0.0 mm
02:45 PM 45.9°F7.7°C 5.9°F-14.5°C 19% 9.0 mph NW14.5 kmh NW 17.2 mph27.7 kmh 25.01 in846.9 mb 0.00 in0.0 mm 0.00 in/hr0.0 mm/hr 0.00 in0.0 mm
02:50 PM 46.0°F7.8°C 6.1°F-14.4°C 19% 10.0 mph WNW16.1 kmh WNW 15.2 mph24.5 kmh 25.01 in846.9 mb 0.00 in0.0 mm 0.00 in/hr0.0 mm/hr 0.00 in0.0 mm
02:55 PM 45.1°F7.3°C 8.6°F-13.0°C 22% 11.0 mph NW17.7 kmh NW 17.7 mph28.5 kmh 24.98 in845.9 mb 0.00 in0.0 mm 0.00 in/hr0.0 mm/hr 0.00 in0.0 mm
03:00 PM 45.9°F7.7°C 9.1°F-12.7°C 22% 11.0 mph NW17.7 kmh NW 15.9 mph25.6 kmh 24.98 in845.9 mb 0.00 in0.0 mm 0.00 in/hr0.0 mm/hr 0.00 in0.0 mm
03:05 PM 45.5°F7.5°C 9.0°F-12.8°C 22% 9.0 mph NW14.5 kmh NW 15.4 mph24.8 kmh 24.98 in845.9 mb 0.00 in0.0 mm 0.00 in/hr0.0 mm/hr 0.00 in0.0 mm
03:10 PM 46.6°F8.1°C 9.9°F-12.3°C 22% 7.0 mph WSW11.3 kmh WSW 12.5 mph20.1 kmh 24.98 in845.9 mb 0.00 in0.0 mm 0.00 in/hr0.0 mm/hr 0.00 in0.0 mm
03:15 PM 46.6°F8.1°C 14.4°F-9.8°C 27% 5.0 mph WSW8.0 kmh WSW 9.6 mph15.4 kmh 24.98 in845.9 mb 0.00 in0.0 mm 0.00 in/hr0.0 mm/hr 0.00 in0.0 mm
03:20 PM 46.4°F8.0°C 9.7°F-12.4°C 22% 5.0 mph W8.0 kmh W 8.3 mph13.4 kmh 24.98 in845.9 mb 0.00 in0.0 mm 0.00 in/hr0.0 mm/hr 0.00 in0.0 mm
03:25 PM 46.4°F8.0°C 11.7°F-11.3°C 24% 4.0 mph WSW6.4 kmh WSW 6.9 mph11.1 kmh 24.98 in845.9 mb 0.00 in0.0 mm 0.00 in/hr0.0 mm/hr 0.00 in0.0 mm
03:30 PM 46.4°F8.0°C 9.7°F-12.4°C 22% 4.0 mph W6.4 kmh W 6.9 mph11.1 kmh 24.98 in845.9 mb 0.00 in0.0 mm 0.00 in/hr0.0 mm/hr 0.00 in0.0 mm
03:35 PM 46.4°F8.0°C 14.2°F-9.9°C 27% 5.0 mph W8.0 kmh W 14.3 mph23.0 kmh 24.98 in845.9 mb 0.00 in0.0 mm 0.00 in/hr0.0 mm/hr 0.00 in0.0 mm
03:40 PM 45.7°F7.6°C 10.9°F-11.7°C 24% 5.0 mph NW8.0 kmh NW 11.0 mph17.7 kmh 24.98 in845.9 mb 0.00 in0.0 mm 0.00 in/hr0.0 mm/hr 0.00 in0.0 mm
03:45 PM 45.3°F7.4°C 14.2°F-9.9°C 28% 5.0 mph N8.0 kmh N 10.1 mph16.3 kmh 24.98 in845.9 mb 0.00 in0.0 mm 0.00 in/hr0.0 mm/hr 0.00 in0.0 mm
03:50 PM 45.5°F7.5°C 14.4°F-9.8°C 28% 6.0 mph NNW9.7 kmh NNW 13.0 mph20.9 kmh 24.98 in845.9 mb 0.00 in0.0 mm 0.00 in/hr0.0 mm/hr 0.00 in0.0 mm
03:55 PM 44.8°F7.1°C 13.6°F-10.2°C 28% 7.0 mph NNW11.3 kmh NNW 11.0 mph17.7 kmh 24.98 in845.9 mb 0.00 in0.0 mm 0.00 in/hr0.0 mm/hr 0.00 in0.0 mm
04:00 PM 44.8°F7.1°C 13.6°F-10.2°C 28% 7.0 mph NNW11.3 kmh NNW 10.1 mph16.3 kmh 24.98 in845.9 mb 0.00 in0.0 mm 0.00 in/hr0.0 mm/hr 0.00 in0.0 mm
04:05 PM 45.0°F7.2°C 13.8°F-10.1°C 28% 7.0 mph NW11.3 kmh NW 11.0 mph17.7 kmh 24.98 in845.9 mb 0.00 in0.0 mm 0.00 in/hr0.0 mm/hr 0.00 in0.0 mm
04:10 PM 44.8°F7.1°C 13.6°F-10.2°C 28% 8.0 mph NNW12.9 kmh NNW 12.1 mph19.5 kmh 24.95 in844.9 mb 0.00 in0.0 mm 0.00 in/hr0.0 mm/hr 0.00 in0.0 mm
04:15 PM 45.0°F7.2°C 13.8°F-10.1°C 28% 8.0 mph NW12.9 kmh NW 9.6 mph15.4 kmh 24.95 in844.9 mb 0.00 in0.0 mm 0.00 in/hr0.0 mm/hr 0.00 in0.0 mm
04:20 PM 44.8°F7.1°C 13.6°F-10.2°C 28% 7.0 mph NW11.3 kmh NW 11.0 mph17.7 kmh 24.95 in844.9 mb 0.00 in0.0 mm 0.00 in/hr0.0 mm/hr 0.00 in0.0 mm
04:25 PM 44.8°F7.1°C 13.6°F-10.2°C 28% 7.0 mph NW11.3 kmh NW 10.1 mph16.3 kmh 24.95 in844.9 mb 0.00 in0.0 mm 0.00 in/hr0.0 mm/hr 0.00 in0.0 mm
04:30 PM 44.8°F7.1°C 13.6°F-10.2°C 28% 6.0 mph NW9.7 kmh NW 7.8 mph12.6 kmh 24.95 in844.9 mb 0.00 in0.0 mm 0.00 in/hr0.0 mm/hr 0.00 in0.0 mm
04:35 PM 45.3°F7.4°C 14.2°F-9.9°C 28% 6.0 mph NW9.7 kmh NW 9.6 mph15.4 kmh 24.95 in844.9 mb 0.00 in0.0 mm 0.00 in/hr0.0 mm/hr 0.00 in0.0 mm
04:41 PM 45.9°F7.7°C 14.5°F-9.7°C 28% 6.0 mph NW9.7 kmh NW 10.5 mph16.9 kmh 24.95 in844.9 mb 0.00 in0.0 mm 0.00 in/hr0.0 mm/hr 0.00 in0.0 mm
04:46 PM 46.0°F7.8°C 14.7°F-9.6°C 28% 7.0 mph NW11.3 kmh NW 11.6 mph18.7 kmh 24.95 in844.9 mb 0.00 in0.0 mm 0.00 in/hr0.0 mm/hr 0.00 in0.0 mm
04:51 PM 45.9°F7.7°C 13.8°F-10.1°C 27% 8.0 mph NW12.9 kmh NW 14.8 mph23.8 kmh 24.95 in844.9 mb 0.00 in0.0 mm 0.00 in/hr0.0 mm/hr 0.00 in0.0 mm
04:56 PM 46.4°F8.0°C 14.2°F-9.9°C 27% 7.0 mph N11.3 kmh N 10.1 mph16.3 kmh 24.95 in844.9 mb 0.00 in0.0 mm 0.00 in/hr0.0 mm/hr 0.00 in0.0 mm
05:01 PM 46.9°F8.3°C 14.7°F-9.6°C 27% 6.0 mph NNW9.7 kmh NNW 9.2 mph14.8 kmh 24.95 in844.9 mb 0.00 in0.0 mm 0.00 in/hr0.0 mm/hr 0.00 in0.0 mm
05:06 PM 47.3°F8.5°C 15.8°F-9.0°C 28% 7.0 mph NW11.3 kmh NW 13.0 mph20.9 kmh 24.95 in844.9 mb 0.00 in0.0 mm 0.00 in/hr0.0 mm/hr 0.00 in0.0 mm
05:11 PM 46.0°F7.8°C 14.0°F-10.0°C 27% 10.0 mph NW16.1 kmh NW 14.3 mph23.0 kmh 24.95 in844.9 mb 0.00 in0.0 mm 0.00 in/hr0.0 mm/hr 0.00 in0.0 mm
05:16 PM 46.2°F7.9°C 14.9°F-9.5°C 28% 10.0 mph NW16.1 kmh NW 13.0 mph20.9 kmh 24.95 in844.9 mb 0.00 in0.0 mm 0.00 in/hr0.0 mm/hr 0.00 in0.0 mm
05:21 PM 45.5°F7.5°C 13.5°F-10.3°C 27% 8.0 mph NW12.9 kmh NW 11.6 mph18.7 kmh 24.95 in844.9 mb 0.00 in0.0 mm 0.00 in/hr0.0 mm/hr 0.00 in0.0 mm
05:26 PM 45.7°F7.6°C 13.6°F-10.2°C 27% 7.0 mph NW11.3 kmh NW 10.5 mph16.9 kmh 24.95 in844.9 mb 0.00 in0.0 mm 0.00 in/hr0.0 mm/hr 0.00 in0.0 mm
05:31 PM 45.5°F7.5°C 14.4°F-9.8°C 28% 8.0 mph NW12.9 kmh NW 11.2 mph18.0 kmh 24.95 in844.9 mb 0.00 in0.0 mm 0.00 in/hr0.0 mm/hr 0.00 in0.0 mm
05:36 PM 45.7°F7.6°C 14.5°F-9.7°C 28% 7.0 mph NW11.3 kmh NW 11.6 mph18.7 kmh 24.95 in844.9 mb 0.00 in0.0 mm 0.00 in/hr0.0 mm/hr 0.00 in0.0 mm
05:41 PM 45.5°F7.5°C 14.4°F-9.8°C 28% 7.0 mph NW11.3 kmh NW 10.5 mph16.9 kmh 24.92 in843.9 mb 0.00 in0.0 mm 0.00 in/hr0.0 mm/hr 0.00 in0.0 mm
05:46 PM 45.3°F7.4°C 14.2°F-9.9°C 28% 7.0 mph NNW11.3 kmh NNW 10.1 mph16.3 kmh 24.92 in843.9 mb 0.00 in0.0 mm 0.00 in/hr0.0 mm/hr 0.00 in0.0 mm
05:51 PM 45.5°F7.5°C 14.4°F-9.8°C 28% 6.0 mph NNW9.7 kmh NNW 9.2 mph14.8 kmh 24.92 in843.9 mb 0.00 in0.0 mm 0.00 in/hr0.0 mm/hr 0.00 in0.0 mm
05:56 PM 45.3°F7.4°C 14.2°F-9.9°C 28% 6.0 mph NNW9.7 kmh NNW 8.3 mph13.4 kmh 24.92 in843.9 mb 0.00 in0.0 mm 0.00 in/hr0.0 mm/hr 0.00 in0.0 mm